Terminal Aerodrome Forecast
Issued by NWS

Home | Current Version | Previous Version | Text Only | Print | Product List | Glossary On
Versions: 1 2 3 4 5 6 7 8 9 10 11 12 13 14 15 16 17 18 19
000
FTUS43 KPAH 191900 AAA
TAFCGI
TAF AMD
KCGI 191946Z 1920/2018 21009KT P6SM VCTS SCT035CB BKN060
     FM200100 22003KT P6SM SCT100
     FM200800 00000KT 3SM BR SKC
      TEMPO 2009/2013 1SM BR
     FM201400 24005KT P6SM FEW035 BKN250=

USA.gov is the U.S. government's official web portal to all federal, state and local government web resources and services.